This is the latest recevied weather packets stored in our database for station/object KC2TER. If no packets are shown the sender has not sent any weather packets the latest 1 day(s).
| Time | Temp. | Humidity | Pressure | Rain* | Wind** | Luminosity | Snow |
|---|---|---|---|---|---|---|---|
| 1836274593 | 19.44° C | 86% | 1017.7 hPa | 0 mm | 0.45 m/s, 107° | 0 W/m² | - |
| 1836274447 | 20° C | 79% | 1018 hPa | 0 mm | 1.34 m/s, 112° | 0 W/m² | - |
| 1836274292 | 18.89° C | 89% | 1017.7 hPa | 0 mm | 0.45 m/s, 101° | 0 W/m² | - |
| 1836274145 | 19.44° C | 82% | 1017.6 hPa | 0 mm | 0.89 m/s, 102° | 0 W/m² | - |
| 1836273991 | 18.89° C | 93% | 1017.6 hPa | 0 mm | 0.89 m/s, 121° | 0 W/m² | - |
| 1778060367 | 16.67° C | 85% | 1010.4 hPa | 0 mm | 0.45 m/s, 105° | 0 W/m² | - |
| 1778060065 | 16.67° C | 85% | 1010.4 hPa | 0 mm | 1.34 m/s, 89° | 0 W/m² | - |
| 1778059762 | 16.67° C | 84% | 1010.5 hPa | 0 mm | 1.79 m/s, 111° | 0 W/m² | - |
| 1778059460 | 16.67° C | 85% | 1010.3 hPa | 0 mm | 2.68 m/s, 72° | 0 W/m² | - |
| 1778059156 | 16.67° C | 85% | 1010.5 hPa | 0 mm | 0 m/s | 0 W/m² | - |
| 1778058854 | 16.67° C | 85% | 1010.4 hPa | 0 mm | 0.89 m/s, 113° | 0 W/m² | - |
| 1778058551 | 16.67° C | 85% | 1010.4 hPa | 0 mm | 0 m/s | 0 W/m² | - |
| 1778058249 | 16.67° C | 85% | 1010.7 hPa | 0 mm | 2.24 m/s, 50° | 0 W/m² | - |
| 1778057945 | 16.67° C | 85% | 1010.5 hPa | 0 mm | 1.34 m/s, 101° | 0 W/m² | - |
| 1778057642 | 16.67° C | 85% | 1010.5 hPa | 0 mm | 1.34 m/s, 117° | 0 W/m² | - |
| 1778057338 | 16.67° C | 85% | 1010.7 hPa | 0 mm | 1.34 m/s, 114° | 0 W/m² | - |
| 1778057035 | 16.67° C | 84% | 1010.7 hPa | 0 mm | 1.79 m/s, 161° | 0 W/m² | - |
| 1778056732 | 16.67° C | 85% | 1010.8 hPa | 0 mm | 0.89 m/s, 70° | 0 W/m² | - |
| 1778056429 | 16.67° C | 84% | 1010.9 hPa | 0 mm | 2.24 m/s, 128° | 0 W/m² | - |
| 1778056126 | 16.67° C | 84% | 1010.6 hPa | 0 mm | 1.34 m/s, 103° | 0 W/m² | - |
| 1778055823 | 16.67° C | 84% | 1010.8 hPa | 0 mm | 0.89 m/s, 107° | 0 W/m² | - |
| 1778055519 | 16.67° C | 84% | 1010.7 hPa | 0 mm | 0.45 m/s, 103° | 0 W/m² | - |
| 1778055218 | 16.67° C | 84% | 1010.8 hPa | 0 mm | 0.89 m/s, 109° | 0 W/m² | - |
| 1778054915 | 16.67° C | 84% | 1010.6 hPa | 0 mm | 1.79 m/s, 117° | 0 W/m² | - |
| 1778054611 | 16.67° C | 84% | 1010.8 hPa | 0 mm | 3.58 m/s, 152° | 0 W/m² | - |
* Rain latest hour (hover to see other rain measurements)
** Current wind speed in m/s (hover to see current wind gust speed)